Buhler, Kansas
Current Conditions -  °F | °C
As of 10:52 PM on Saturday 20 Dec 2014 (Local Time) from KHUT Reporting Station
Overcast Overcast  
Wind Chill: 35°   Ceiling: 1500
Heat Index: 42°   Visibility: 10mi
Dew Point: 36°   Wind: 13mph
Humidity: 79%   Direction: 180°S
Pressure: 30.06"   Gusts: NA
Location:  38.13°N, 97.77°W
Report Text: KHUT 210452Z 18011KT 10SM OVC015 06/02 A3006 RMK AO2 SLP177 T00560022
Loading
Personal Weather Stations






























Interactive Weather Map New forecast layout! Learn more

10-Day Weather Forecast

Advertisements
Track Severe Weather on mobile